sensor_id;sensor_type;location;lat;lon;timestamp;P1;durP1;ratioP1;P2;durP2;ratioP2
40367;SDS011;26075;43.320;21.920;2024-01-25T00:09:44;75.90;;;46.75;;
40367;SDS011;26075;43.320;21.920;2024-01-25T00:15:02;98.05;;;57.70;;
40367;SDS011;26075;43.320;21.920;2024-01-25T00:20:04;104.90;;;60.42;;
40367;SDS011;26075;43.320;21.920;2024-01-25T00:25:07;95.18;;;57.97;;
40367;SDS011;26075;43.320;21.920;2024-01-25T00:41:21;104.75;;;64.45;;
40367;SDS011;26075;43.320;21.920;2024-01-25T00:52:02;104.95;;;62.95;;
40367;SDS011;26075;43.320;21.920;2024-01-25T00:57:04;117.47;;;73.82;;
40367;SDS011;26075;43.320;21.920;2024-01-25T01:07:55;175.70;;;108.93;;
40367;SDS011;26075;43.320;21.920;2024-01-25T01:12:56;170.02;;;107.97;;
40367;SDS011;26075;43.320;21.920;2024-01-25T01:17:57;167.35;;;102.72;;
40367;SDS011;26075;43.320;21.920;2024-01-25T01:22:58;164.32;;;97.07;;
40367;SDS011;26075;43.320;21.920;2024-01-25T01:28:00;145.65;;;90.18;;
40367;SDS011;26075;43.320;21.920;2024-01-25T01:33:01;133.90;;;85.45;;
40367;SDS011;26075;43.320;21.920;2024-01-25T01:38:02;132.50;;;82.97;;
40367;SDS011;26075;43.320;21.920;2024-01-25T01:43:03;116.20;;;76.32;;
40367;SDS011;26075;43.320;21.920;2024-01-25T01:48:04;123.13;;;76.18;;
40367;SDS011;26075;43.320;21.920;2024-01-25T01:53:06;104.68;;;66.68;;
40367;SDS011;26075;43.320;21.920;2024-01-25T01:58:07;92.70;;;58.90;;
40367;SDS011;26075;43.320;21.920;2024-01-25T02:03:08;93.97;;;59.53;;
40367;SDS011;26075;43.320;21.920;2024-01-25T02:08:09;96.43;;;60.05;;
40367;SDS011;26075;43.320;21.920;2024-01-25T02:13:11;117.00;;;73.57;;
40367;SDS011;26075;43.320;21.920;2024-01-25T02:18:12;104.97;;;67.53;;
40367;SDS011;26075;43.320;21.920;2024-01-25T02:23:13;108.88;;;70.97;;
40367;SDS011;26075;43.320;21.920;2024-01-25T02:28:14;110.47;;;67.13;;
40367;SDS011;26075;43.320;21.920;2024-01-25T02:33:15;99.93;;;64.53;;
40367;SDS011;26075;43.320;21.920;2024-01-25T02:38:16;91.45;;;57.90;;
40367;SDS011;26075;43.320;21.920;2024-01-25T02:43:18;93.20;;;58.35;;
40367;SDS011;26075;43.320;21.920;2024-01-25T02:48:20;83.93;;;54.42;;
40367;SDS011;26075;43.320;21.920;2024-01-25T02:53:27;80.85;;;50.28;;
40367;SDS011;26075;43.320;21.920;2024-01-25T02:58:28;83.85;;;52.58;;
40367;SDS011;26075;43.320;21.920;2024-01-25T03:03:32;76.22;;;50.13;;
40367;SDS011;26075;43.320;21.920;2024-01-25T03:08:33;66.72;;;44.95;;
40367;SDS011;26075;43.320;21.920;2024-01-25T03:13:50;65.22;;;42.45;;
40367;SDS011;26075;43.320;21.920;2024-01-25T03:18:51;63.58;;;40.83;;
40367;SDS011;26075;43.320;21.920;2024-01-25T03:24:05;67.38;;;43.85;;
40367;SDS011;26075;43.320;21.920;2024-01-25T03:29:08;79.78;;;50.92;;
40367;SDS011;26075;43.320;21.920;2024-01-25T03:34:09;73.20;;;49.17;;
40367;SDS011;26075;43.320;21.920;2024-01-25T03:39:12;82.80;;;51.42;;
40367;SDS011;26075;43.320;21.920;2024-01-25T03:44:13;74.25;;;48.83;;
40367;SDS011;26075;43.320;21.920;2024-01-25T03:49:14;75.07;;;49.20;;
40367;SDS011;26075;43.320;21.920;2024-01-25T03:54:15;79.68;;;50.25;;
40367;SDS011;26075;43.320;21.920;2024-01-25T03:59:16;78.57;;;48.65;;
40367;SDS011;26075;43.320;21.920;2024-01-25T04:04:23;69.45;;;46.20;;
40367;SDS011;26075;43.320;21.920;2024-01-25T04:09:24;63.30;;;40.80;;
40367;SDS011;26075;43.320;21.920;2024-01-25T04:14:28;52.75;;;33.97;;
40367;SDS011;26075;43.320;21.920;2024-01-25T04:19:29;43.45;;;30.35;;
40367;SDS011;26075;43.320;21.920;2024-01-25T04:24:30;50.55;;;31.80;;
40367;SDS011;26075;43.320;21.920;2024-01-25T04:29:31;50.90;;;34.70;;
40367;SDS011;26075;43.320;21.920;2024-01-25T04:34:32;56.38;;;35.03;;
40367;SDS011;26075;43.320;21.920;2024-01-25T04:39:33;80.57;;;48.58;;
40367;SDS011;26075;43.320;21.920;2024-01-25T04:44:34;67.72;;;38.78;;
40367;SDS011;26075;43.320;21.920;2024-01-25T04:49:36;55.55;;;37.83;;
40367;SDS011;26075;43.320;21.920;2024-01-25T04:54:37;59.70;;;38.85;;
40367;SDS011;26075;43.320;21.920;2024-01-25T04:59:38;56.50;;;36.05;;
40367;SDS011;26075;43.320;21.920;2024-01-25T05:04:40;59.85;;;37.53;;
40367;SDS011;26075;43.320;21.920;2024-01-25T05:09:41;62.65;;;39.22;;
40367;SDS011;26075;43.320;21.920;2024-01-25T05:14:42;60.95;;;39.47;;
40367;SDS011;26075;43.320;21.920;2024-01-25T05:19:43;69.70;;;44.92;;
40367;SDS011;26075;43.320;21.920;2024-01-25T05:24:45;65.57;;;43.33;;
40367;SDS011;26075;43.320;21.920;2024-01-25T05:29:46;61.10;;;38.90;;
40367;SDS011;26075;43.320;21.920;2024-01-25T05:34:47;66.15;;;38.85;;
40367;SDS011;26075;43.320;21.920;2024-01-25T05:39:48;65.55;;;42.30;;
40367;SDS011;26075;43.320;21.920;2024-01-25T05:44:50;61.20;;;40.35;;
40367;SDS011;26075;43.320;21.920;2024-01-25T05:49:51;61.42;;;41.45;;
40367;SDS011;26075;43.320;21.920;2024-01-25T05:54:52;54.28;;;35.33;;
40367;SDS011;26075;43.320;21.920;2024-01-25T05:59:53;55.45;;;34.72;;
40367;SDS011;26075;43.320;21.920;2024-01-25T06:04:54;58.50;;;38.00;;
40367;SDS011;26075;43.320;21.920;2024-01-25T06:09:58;52.67;;;32.78;;
40367;SDS011;26075;43.320;21.920;2024-01-25T06:14:59;42.45;;;26.50;;
40367;SDS011;26075;43.320;21.920;2024-01-25T06:20:00;42.33;;;26.58;;
40367;SDS011;26075;43.320;21.920;2024-01-25T06:25:05;40.25;;;24.90;;
40367;SDS011;26075;43.320;21.920;2024-01-25T06:30:06;42.95;;;26.75;;
40367;SDS011;26075;43.320;21.920;2024-01-25T06:35:07;38.65;;;24.38;;
40367;SDS011;26075;43.320;21.920;2024-01-25T06:40:08;34.17;;;21.88;;
40367;SDS011;26075;43.320;21.920;2024-01-25T06:45:09;32.88;;;19.10;;
40367;SDS011;26075;43.320;21.920;2024-01-25T06:50:11;27.33;;;17.92;;
40367;SDS011;26075;43.320;21.920;2024-01-25T06:55:12;28.17;;;18.08;;
40367;SDS011;26075;43.320;21.920;2024-01-25T07:00:13;29.15;;;19.27;;
40367;SDS011;26075;43.320;21.920;2024-01-25T07:05:15;35.85;;;22.88;;
40367;SDS011;26075;43.320;21.920;2024-01-25T07:10:16;42.42;;;27.35;;
40367;SDS011;26075;43.320;21.920;2024-01-25T07:15:27;64.78;;;37.70;;
40367;SDS011;26075;43.320;21.920;2024-01-25T07:20:28;57.53;;;34.47;;
40367;SDS011;26075;43.320;21.920;2024-01-25T07:25:36;57.25;;;33.97;;
40367;SDS011;26075;43.320;21.920;2024-01-25T07:30:37;59.55;;;34.75;;
40367;SDS011;26075;43.320;21.920;2024-01-25T07:35:39;51.63;;;32.08;;
40367;SDS011;26075;43.320;21.920;2024-01-25T07:40:45;53.70;;;33.70;;
40367;SDS011;26075;43.320;21.920;2024-01-25T07:45:46;52.53;;;31.65;;
40367;SDS011;26075;43.320;21.920;2024-01-25T07:50:47;43.45;;;26.63;;
40367;SDS011;26075;43.320;21.920;2024-01-25T07:55:48;45.42;;;30.10;;
40367;SDS011;26075;43.320;21.920;2024-01-25T08:00:49;65.72;;;38.63;;
40367;SDS011;26075;43.320;21.920;2024-01-25T08:05:51;68.45;;;43.38;;
40367;SDS011;26075;43.320;21.920;2024-01-25T08:10:52;69.10;;;45.40;;
40367;SDS011;26075;43.320;21.920;2024-01-25T08:15:53;48.95;;;34.28;;
40367;SDS011;26075;43.320;21.920;2024-01-25T08:20:55;63.90;;;40.33;;
40367;SDS011;26075;43.320;21.920;2024-01-25T08:25:57;57.33;;;35.90;;
40367;SDS011;26075;43.320;21.920;2024-01-25T08:30:59;55.10;;;36.25;;
40367;SDS011;26075;43.320;21.920;2024-01-25T08:36:05;50.15;;;33.05;;
40367;SDS011;26075;43.320;21.920;2024-01-25T08:41:06;50.72;;;31.63;;
40367;SDS011;26075;43.320;21.920;2024-01-25T08:46:07;54.72;;;35.50;;
40367;SDS011;26075;43.320;21.920;2024-01-25T08:51:08;61.90;;;39.58;;
40367;SDS011;26075;43.320;21.920;2024-01-25T08:56:10;74.18;;;45.17;;
40367;SDS011;26075;43.320;21.920;2024-01-25T09:01:11;62.30;;;40.45;;
40367;SDS011;26075;43.320;21.920;2024-01-25T09:06:12;60.38;;;41.22;;
40367;SDS011;26075;43.320;21.920;2024-01-25T09:11:15;56.85;;;38.33;;
40367;SDS011;26075;43.320;21.920;2024-01-25T09:16:16;61.47;;;42.15;;
40367;SDS011;26075;43.320;21.920;2024-01-25T09:21:17;66.18;;;46.33;;
40367;SDS011;26075;43.320;21.920;2024-01-25T09:26:18;72.75;;;48.17;;
40367;SDS011;26075;43.320;21.920;2024-01-25T09:31:19;69.03;;;47.78;;
40367;SDS011;26075;43.320;21.920;2024-01-25T09:36:20;66.28;;;47.30;;
40367;SDS011;26075;43.320;21.920;2024-01-25T09:41:21;71.68;;;50.17;;
40367;SDS011;26075;43.320;21.920;2024-01-25T09:46:25;77.03;;;50.65;;
40367;SDS011;26075;43.320;21.920;2024-01-25T09:51:27;78.40;;;52.67;;
40367;SDS011;26075;43.320;21.920;2024-01-25T09:56:32;79.87;;;55.27;;
40367;SDS011;26075;43.320;21.920;2024-01-25T10:01:34;75.82;;;51.13;;
40367;SDS011;26075;43.320;21.920;2024-01-25T10:06:35;57.38;;;42.05;;
40367;SDS011;26075;43.320;21.920;2024-01-25T10:11:36;56.83;;;39.42;;
40367;SDS011;26075;43.320;21.920;2024-01-25T10:16:37;55.17;;;36.85;;
40367;SDS011;26075;43.320;21.920;2024-01-25T10:21:40;52.28;;;35.28;;
40367;SDS011;26075;43.320;21.920;2024-01-25T10:26:42;50.17;;;32.55;;
40367;SDS011;26075;43.320;21.920;2024-01-25T10:31:43;50.65;;;30.30;;
40367;SDS011;26075;43.320;21.920;2024-01-25T10:36:45;45.25;;;29.65;;
40367;SDS011;26075;43.320;21.920;2024-01-25T10:41:46;43.90;;;29.30;;
40367;SDS011;26075;43.320;21.920;2024-01-25T10:46:51;32.05;;;21.40;;
40367;SDS011;26075;43.320;21.920;2024-01-25T10:51:54;38.78;;;21.75;;
40367;SDS011;26075;43.320;21.920;2024-01-25T10:56:55;31.73;;;15.98;;
40367;SDS011;26075;43.320;21.920;2024-01-25T11:02:00;18.05;;;4.53;;
40367;SDS011;26075;43.320;21.920;2024-01-25T11:07:08;14.05;;;4.38;;
40367;SDS011;26075;43.320;21.920;2024-01-25T11:12:12;15.02;;;5.25;;
40367;SDS011;26075;43.320;21.920;2024-01-25T11:17:14;14.23;;;4.88;;
40367;SDS011;26075;43.320;21.920;2024-01-25T11:22:15;18.50;;;5.88;;
40367;SDS011;26075;43.320;21.920;2024-01-25T11:27:17;14.05;;;4.57;;
40367;SDS011;26075;43.320;21.920;2024-01-25T11:32:26;17.83;;;5.35;;
40367;SDS011;26075;43.320;21.920;2024-01-25T11:37:27;16.35;;;3.50;;
40367;SDS011;26075;43.320;21.920;2024-01-25T11:42:28;16.40;;;4.07;;
40367;SDS011;26075;43.320;21.920;2024-01-25T11:47:30;14.27;;;5.45;;
40367;SDS011;26075;43.320;21.920;2024-01-25T11:52:40;9.98;;;3.03;;
40367;SDS011;26075;43.320;21.920;2024-01-25T11:57:41;17.50;;;4.78;;
40367;SDS011;26075;43.320;21.920;2024-01-25T12:02:42;18.40;;;3.88;;
40367;SDS011;26075;43.320;21.920;2024-01-25T12:07:43;12.88;;;4.50;;
40367;SDS011;26075;43.320;21.920;2024-01-25T12:12:44;17.55;;;4.57;;
40367;SDS011;26075;43.320;21.920;2024-01-25T12:17:45;14.13;;;4.53;;
40367;SDS011;26075;43.320;21.920;2024-01-25T12:22:52;15.75;;;5.60;;
40367;SDS011;26075;43.320;21.920;2024-01-25T12:27:53;18.48;;;5.35;;
40367;SDS011;26075;43.320;21.920;2024-01-25T12:32:59;12.65;;;4.65;;
40367;SDS011;26075;43.320;21.920;2024-01-25T12:38:00;19.42;;;7.22;;
40367;SDS011;26075;43.320;21.920;2024-01-25T12:43:04;19.60;;;6.22;;
40367;SDS011;26075;43.320;21.920;2024-01-25T12:48:05;11.73;;;6.25;;
40367;SDS011;26075;43.320;21.920;2024-01-25T12:53:07;15.05;;;5.50;;
40367;SDS011;26075;43.320;21.920;2024-01-25T12:58:10;19.25;;;8.27;;
40367;SDS011;26075;43.320;21.920;2024-01-25T13:03:11;18.52;;;5.82;;
40367;SDS011;26075;43.320;21.920;2024-01-25T13:08:12;13.30;;;6.75;;
40367;SDS011;26075;43.320;21.920;2024-01-25T13:13:14;13.90;;;6.50;;
40367;SDS011;26075;43.320;21.920;2024-01-25T13:18:15;17.45;;;6.53;;
40367;SDS011;26075;43.320;21.920;2024-01-25T13:23:16;20.08;;;6.38;;
40367;SDS011;26075;43.320;21.920;2024-01-25T13:28:18;17.70;;;6.25;;
40367;SDS011;26075;43.320;21.920;2024-01-25T13:33:19;16.52;;;6.13;;
40367;SDS011;26075;43.320;21.920;2024-01-25T13:38:23;15.98;;;5.72;;
40367;SDS011;26075;43.320;21.920;2024-01-25T13:43:24;12.45;;;6.07;;
40367;SDS011;26075;43.320;21.920;2024-01-25T13:48:30;16.63;;;5.53;;
40367;SDS011;26075;43.320;21.920;2024-01-25T14:03:52;22.02;;;10.52;;
40367;SDS011;26075;43.320;21.920;2024-01-25T14:08:53;19.83;;;10.55;;
40367;SDS011;26075;43.320;21.920;2024-01-25T14:13:57;23.70;;;10.00;;
40367;SDS011;26075;43.320;21.920;2024-01-25T14:18:58;17.42;;;6.53;;
40367;SDS011;26075;43.320;21.920;2024-01-25T14:23:59;13.70;;;7.95;;
40367;SDS011;26075;43.320;21.920;2024-01-25T14:29:04;15.38;;;7.97;;
40367;SDS011;26075;43.320;21.920;2024-01-25T14:34:05;16.80;;;8.25;;
40367;SDS011;26075;43.320;21.920;2024-01-25T14:39:07;17.38;;;7.63;;
40367;SDS011;26075;43.320;21.920;2024-01-25T14:44:08;18.60;;;8.07;;
40367;SDS011;26075;43.320;21.920;2024-01-25T14:49:10;20.73;;;6.80;;
40367;SDS011;26075;43.320;21.920;2024-01-25T14:54:11;14.23;;;5.95;;
40367;SDS011;26075;43.320;21.920;2024-01-25T14:59:12;12.10;;;6.18;;
40367;SDS011;26075;43.320;21.920;2024-01-25T15:04:13;15.07;;;7.35;;
40367;SDS011;26075;43.320;21.920;2024-01-25T15:09:14;16.55;;;6.13;;
40367;SDS011;26075;43.320;21.920;2024-01-25T15:14:15;11.20;;;5.93;;
40367;SDS011;26075;43.320;21.920;2024-01-25T15:19:16;17.42;;;8.32;;
40367;SDS011;26075;43.320;21.920;2024-01-25T15:24:18;16.73;;;7.40;;
40367;SDS011;26075;43.320;21.920;2024-01-25T15:29:19;17.23;;;6.60;;
40367;SDS011;26075;43.320;21.920;2024-01-25T15:34:24;13.00;;;5.05;;
40367;SDS011;26075;43.320;21.920;2024-01-25T15:39:25;14.07;;;4.78;;
40367;SDS011;26075;43.320;21.920;2024-01-25T15:44:29;10.30;;;4.85;;
40367;SDS011;26075;43.320;21.920;2024-01-25T15:49:30;16.10;;;6.65;;
40367;SDS011;26075;43.320;21.920;2024-01-25T15:54:31;19.23;;;9.13;;
40367;SDS011;26075;43.320;21.920;2024-01-25T15:59:32;22.05;;;10.23;;
40367;SDS011;26075;43.320;21.920;2024-01-25T16:04:33;16.85;;;9.75;;
40367;SDS011;26075;43.320;21.920;2024-01-25T16:09:34;17.70;;;9.15;;
40367;SDS011;26075;43.320;21.920;2024-01-25T16:14:35;24.40;;;13.43;;
40367;SDS011;26075;43.320;21.920;2024-01-25T16:19:36;25.23;;;13.32;;
40367;SDS011;26075;43.320;21.920;2024-01-25T16:24:38;26.70;;;15.05;;
40367;SDS011;26075;43.320;21.920;2024-01-25T16:29:39;35.30;;;20.10;;
40367;SDS011;26075;43.320;21.920;2024-01-25T16:34:40;29.50;;;17.88;;
40367;SDS011;26075;43.320;21.920;2024-01-25T16:39:41;19.10;;;8.23;;
40367;SDS011;26075;43.320;21.920;2024-01-25T16:44:42;28.40;;;17.65;;
40367;SDS011;26075;43.320;21.920;2024-01-25T16:49:46;27.50;;;16.85;;
40367;SDS011;26075;43.320;21.920;2024-01-25T16:54:47;30.00;;;18.95;;
40367;SDS011;26075;43.320;21.920;2024-01-25T16:59:55;30.88;;;18.83;;
40367;SDS011;26075;43.320;21.920;2024-01-25T17:04:56;35.55;;;19.88;;
40367;SDS011;26075;43.320;21.920;2024-01-25T17:10:07;25.05;;;15.85;;
40367;SDS011;26075;43.320;21.920;2024-01-25T17:15:10;24.08;;;15.27;;
40367;SDS011;26075;43.320;21.920;2024-01-25T17:20:11;31.40;;;21.15;;
40367;SDS011;26075;43.320;21.920;2024-01-25T17:25:14;53.42;;;30.85;;
40367;SDS011;26075;43.320;21.920;2024-01-25T17:30:15;52.88;;;31.33;;
40367;SDS011;26075;43.320;21.920;2024-01-25T17:35:16;108.78;;;58.80;;
40367;SDS011;26075;43.320;21.920;2024-01-25T17:40:17;64.35;;;37.10;;
40367;SDS011;26075;43.320;21.920;2024-01-25T17:45:20;63.65;;;36.92;;
40367;SDS011;26075;43.320;21.920;2024-01-25T17:50:21;104.50;;;65.43;;
40367;SDS011;26075;43.320;21.920;2024-01-25T17:55:22;105.00;;;64.00;;
40367;SDS011;26075;43.320;21.920;2024-01-25T18:00:23;124.22;;;76.00;;
40367;SDS011;26075;43.320;21.920;2024-01-25T18:05:24;165.40;;;106.47;;
40367;SDS011;26075;43.320;21.920;2024-01-25T18:10:29;156.32;;;96.40;;
40367;SDS011;26075;43.320;21.920;2024-01-25T18:15:30;158.53;;;96.33;;
40367;SDS011;26075;43.320;21.920;2024-01-25T18:20:47;111.63;;;69.50;;
40367;SDS011;26075;43.320;21.920;2024-01-25T18:25:48;98.05;;;61.58;;
40367;SDS011;26075;43.320;21.920;2024-01-25T18:30:52;39.75;;;23.10;;
40367;SDS011;26075;43.320;21.920;2024-01-25T18:35:53;49.22;;;29.48;;
40367;SDS011;26075;43.320;21.920;2024-01-25T18:41:01;54.55;;;35.28;;
40367;SDS011;26075;43.320;21.920;2024-01-25T18:46:06;42.80;;;24.38;;
40367;SDS011;26075;43.320;21.920;2024-01-25T18:51:09;28.58;;;13.77;;
40367;SDS011;26075;43.320;21.920;2024-01-25T18:56:10;23.20;;;11.20;;
40367;SDS011;26075;43.320;21.920;2024-01-25T19:01:11;18.27;;;8.05;;
40367;SDS011;26075;43.320;21.920;2024-01-25T19:06:12;17.45;;;7.22;;
40367;SDS011;26075;43.320;21.920;2024-01-25T19:11:20;17.50;;;9.55;;
40367;SDS011;26075;43.320;21.920;2024-01-25T19:16:21;20.08;;;8.70;;
40367;SDS011;26075;43.320;21.920;2024-01-25T19:21:25;20.13;;;10.43;;
40367;SDS011;26075;43.320;21.920;2024-01-25T19:26:26;28.08;;;12.43;;
40367;SDS011;26075;43.320;21.920;2024-01-25T19:31:34;22.63;;;10.98;;
40367;SDS011;26075;43.320;21.920;2024-01-25T19:36:35;28.63;;;15.48;;
40367;SDS011;26075;43.320;21.920;2024-01-25T19:41:39;32.13;;;16.60;;
40367;SDS011;26075;43.320;21.920;2024-01-25T19:46:40;28.55;;;14.60;;
40367;SDS011;26075;43.320;21.920;2024-01-25T19:51:56;28.15;;;14.95;;
40367;SDS011;26075;43.320;21.920;2024-01-25T20:02:02;26.73;;;14.63;;
40367;SDS011;26075;43.320;21.920;2024-01-25T20:07:04;22.38;;;12.75;;
40367;SDS011;26075;43.320;21.920;2024-01-25T20:12:06;23.98;;;12.48;;
40367;SDS011;26075;43.320;21.920;2024-01-25T20:17:07;21.88;;;13.23;;
40367;SDS011;26075;43.320;21.920;2024-01-25T20:27:33;22.97;;;12.97;;
40367;SDS011;26075;43.320;21.920;2024-01-25T20:32:37;27.08;;;13.68;;
40367;SDS011;26075;43.320;21.920;2024-01-25T20:37:38;26.27;;;13.60;;
40367;SDS011;26075;43.320;21.920;2024-01-25T20:42:40;25.58;;;14.30;;
40367;SDS011;26075;43.320;21.920;2024-01-25T20:47:51;25.35;;;14.90;;
40367;SDS011;26075;43.320;21.920;2024-01-25T20:52:52;30.63;;;15.98;;
40367;SDS011;26075;43.320;21.920;2024-01-25T20:58:09;28.23;;;17.75;;
40367;SDS011;26075;43.320;21.920;2024-01-25T21:03:10;33.83;;;18.50;;
40367;SDS011;26075;43.320;21.920;2024-01-25T21:08:22;35.05;;;19.40;;
40367;SDS011;26075;43.320;21.920;2024-01-25T21:13:31;30.63;;;18.90;;
40367;SDS011;26075;43.320;21.920;2024-01-25T21:18:32;34.63;;;18.98;;
40367;SDS011;26075;43.320;21.920;2024-01-25T21:23:36;31.02;;;17.50;;
40367;SDS011;26075;43.320;21.920;2024-01-25T21:28:45;30.27;;;17.77;;
40367;SDS011;26075;43.320;21.920;2024-01-25T21:33:46;34.05;;;20.45;;
40367;SDS011;26075;43.320;21.920;2024-01-25T21:38:58;23.80;;;14.13;;
40367;SDS011;26075;43.320;21.920;2024-01-25T21:44:14;26.52;;;12.77;;
40367;SDS011;26075;43.320;21.920;2024-01-25T21:49:15;26.23;;;10.95;;
40367;SDS011;26075;43.320;21.920;2024-01-25T21:54:18;23.70;;;12.20;;
40367;SDS011;26075;43.320;21.920;2024-01-25T22:10:04;21.80;;;9.90;;
40367;SDS011;26075;43.320;21.920;2024-01-25T22:15:05;18.35;;;7.53;;
40367;SDS011;26075;43.320;21.920;2024-01-25T22:20:08;20.80;;;9.50;;
40367;SDS011;26075;43.320;21.920;2024-01-25T22:25:09;20.42;;;9.60;;
40367;SDS011;26075;43.320;21.920;2024-01-25T22:30:11;26.23;;;11.13;;
40367;SDS011;26075;43.320;21.920;2024-01-25T22:35:12;20.05;;;7.93;;
40367;SDS011;26075;43.320;21.920;2024-01-25T22:40:15;25.25;;;11.48;;
40367;SDS011;26075;43.320;21.920;2024-01-25T22:45:16;31.95;;;17.08;;
40367;SDS011;26075;43.320;21.920;2024-01-25T22:50:18;35.28;;;16.65;;
40367;SDS011;26075;43.320;21.920;2024-01-25T22:55:19;25.98;;;12.68;;
40367;SDS011;26075;43.320;21.920;2024-01-25T23:00:20;26.65;;;12.05;;
40367;SDS011;26075;43.320;21.920;2024-01-25T23:05:21;25.35;;;10.82;;
40367;SDS011;26075;43.320;21.920;2024-01-25T23:10:22;26.27;;;11.48;;
40367;SDS011;26075;43.320;21.920;2024-01-25T23:15:23;16.73;;;7.82;;
40367;SDS011;26075;43.320;21.920;2024-01-25T23:20:24;17.55;;;7.10;;
40367;SDS011;26075;43.320;21.920;2024-01-25T23:25:25;17.50;;;7.30;;
40367;SDS011;26075;43.320;21.920;2024-01-25T23:30:26;16.88;;;7.53;;
40367;SDS011;26075;43.320;21.920;2024-01-25T23:35:30;18.10;;;6.93;;
40367;SDS011;26075;43.320;21.920;2024-01-25T23:46:04;20.90;;;7.93;;
40367;SDS011;26075;43.320;21.920;2024-01-25T23:51:05;14.57;;;6.82;;
40367;SDS011;26075;43.320;21.920;2024-01-25T23:56:06;14.57;;;7.40;;
